sensor_id;sensor_type;location;lat;lon;timestamp;pressure;altitude;pressure_sealevel;temperature;humidity
63715;BME280;49858;48.956;9.076;2023-10-19T00:00:55;97135.38;;;13.27;100.00
63715;BME280;49858;48.956;9.076;2023-10-19T00:03:23;97126.56;;;13.36;100.00
63715;BME280;49858;48.956;9.076;2023-10-19T00:05:55;97131.91;;;13.50;100.00
63715;BME280;49858;48.956;9.076;2023-10-19T00:08:24;97134.03;;;13.39;100.00
63715;BME280;49858;48.956;9.076;2023-10-19T00:10:54;97132.25;;;13.55;100.00
63715;BME280;49858;48.956;9.076;2023-10-19T00:13:29;97114.81;;;13.32;100.00
63715;BME280;49858;48.956;9.076;2023-10-19T00:15:57;97109.78;;;13.23;100.00
63715;BME280;49858;48.956;9.076;2023-10-19T00:18:24;97117.56;;;13.32;100.00
63715;BME280;49858;48.956;9.076;2023-10-19T00:20:55;97121.38;;;13.41;100.00
63715;BME280;49858;48.956;9.076;2023-10-19T00:23:26;97121.91;;;13.60;100.00
63715;BME280;49858;48.956;9.076;2023-10-19T00:25:58;97129.00;;;13.91;100.00
63715;BME280;49858;48.956;9.076;2023-10-19T00:28:26;97131.13;;;14.34;100.00
63715;BME280;49858;48.956;9.076;2023-10-19T00:30:54;97146.28;;;13.68;100.00
63715;BME280;49858;48.956;9.076;2023-10-19T00:33:30;97146.19;;;13.75;100.00
63715;BME280;49858;48.956;9.076;2023-10-19T00:36:00;97140.06;;;14.45;100.00
63715;BME280;49858;48.956;9.076;2023-10-19T00:38:36;97131.75;;;14.45;100.00
63715;BME280;49858;48.956;9.076;2023-10-19T00:41:15;97128.34;;;14.61;100.00
63715;BME280;49858;48.956;9.076;2023-10-19T00:43:48;97120.38;;;15.30;100.00
63715;BME280;49858;48.956;9.076;2023-10-19T00:46:18;97101.59;;;15.18;100.00
63715;BME280;49858;48.956;9.076;2023-10-19T00:48:54;97102.00;;;15.56;100.00
63715;BME280;49858;48.956;9.076;2023-10-19T00:51:26;97101.81;;;15.27;100.00
63715;BME280;49858;48.956;9.076;2023-10-19T00:54:07;97087.75;;;14.78;100.00
63715;BME280;49858;48.956;9.076;2023-10-19T00:56:37;97090.31;;;15.08;100.00
63715;BME280;49858;48.956;9.076;2023-10-19T00:59:08;97081.06;;;15.55;100.00
63715;BME280;49858;48.956;9.076;2023-10-19T01:01:41;97077.00;;;15.59;100.00
63715;BME280;49858;48.956;9.076;2023-10-19T01:04:14;97079.56;;;15.50;100.00
63715;BME280;49858;48.956;9.076;2023-10-19T01:06:50;97080.00;;;15.69;100.00
63715;BME280;49858;48.956;9.076;2023-10-19T01:09:28;97074.66;;;15.78;100.00
63715;BME280;49858;48.956;9.076;2023-10-19T01:12:01;97070.31;;;15.77;100.00
63715;BME280;49858;48.956;9.076;2023-10-19T01:15:04;97074.06;;;15.87;100.00
63715;BME280;49858;48.956;9.076;2023-10-19T01:17:35;97073.53;;;15.55;100.00
63715;BME280;49858;48.956;9.076;2023-10-19T01:20:08;97069.03;;;15.62;100.00
63715;BME280;49858;48.956;9.076;2023-10-19T01:22:50;97065.16;;;16.28;100.00
63715;BME280;49858;48.956;9.076;2023-10-19T01:25:20;97067.41;;;16.49;100.00
63715;BME280;49858;48.956;9.076;2023-10-19T01:28:06;97061.88;;;16.33;100.00
63715;BME280;49858;48.956;9.076;2023-10-19T01:30:36;97048.50;;;16.12;100.00
63715;BME280;49858;48.956;9.076;2023-10-19T01:33:05;97044.41;;;15.83;100.00
63715;BME280;49858;48.956;9.076;2023-10-19T01:35:40;97036.44;;;15.69;100.00
63715;BME280;49858;48.956;9.076;2023-10-19T01:38:23;97037.66;;;15.68;100.00
63715;BME280;49858;48.956;9.076;2023-10-19T01:40:51;97038.91;;;15.07;100.00
63715;BME280;49858;48.956;9.076;2023-10-19T01:43:21;97038.19;;;14.83;100.00
63715;BME280;49858;48.956;9.076;2023-10-19T01:45:52;97036.69;;;15.19;100.00
63715;BME280;49858;48.956;9.076;2023-10-19T01:48:21;97032.19;;;15.45;100.00
63715;BME280;49858;48.956;9.076;2023-10-19T01:50:59;97025.47;;;15.62;100.00
63715;BME280;49858;48.956;9.076;2023-10-19T01:53:27;97029.03;;;15.63;100.00
63715;BME280;49858;48.956;9.076;2023-10-19T01:55:57;97018.31;;;15.65;100.00
63715;BME280;49858;48.956;9.076;2023-10-19T01:58:25;97018.59;;;15.50;100.00
63715;BME280;49858;48.956;9.076;2023-10-19T02:00:53;97019.03;;;15.49;100.00
63715;BME280;49858;48.956;9.076;2023-10-19T02:03:22;97016.88;;;15.00;100.00
63715;BME280;49858;48.956;9.076;2023-10-19T02:05:57;97021.22;;;14.81;100.00
63715;BME280;49858;48.956;9.076;2023-10-19T02:08:27;97024.25;;;14.44;100.00
63715;BME280;49858;48.956;9.076;2023-10-19T02:10:55;97019.31;;;14.98;100.00
63715;BME280;49858;48.956;9.076;2023-10-19T02:13:22;97018.25;;;14.92;100.00
63715;BME280;49858;48.956;9.076;2023-10-19T02:15:50;97015.06;;;14.74;100.00
63715;BME280;49858;48.956;9.076;2023-10-19T02:18:17;97014.34;;;14.90;100.00
63715;BME280;49858;48.956;9.076;2023-10-19T02:20:45;97007.97;;;14.93;100.00
63715;BME280;49858;48.956;9.076;2023-10-19T02:23:15;96997.50;;;14.61;100.00
63715;BME280;49858;48.956;9.076;2023-10-19T02:25:43;96987.00;;;14.52;100.00
63715;BME280;49858;48.956;9.076;2023-10-19T02:28:11;96988.38;;;14.40;100.00
63715;BME280;49858;48.956;9.076;2023-10-19T02:30:39;96979.34;;;14.60;100.00
63715;BME280;49858;48.956;9.076;2023-10-19T02:33:09;96982.91;;;14.60;100.00
63715;BME280;49858;48.956;9.076;2023-10-19T02:35:38;96975.59;;;14.70;100.00
63715;BME280;49858;48.956;9.076;2023-10-19T02:38:07;96982.53;;;14.35;100.00
63715;BME280;49858;48.956;9.076;2023-10-19T02:40:34;96975.44;;;14.33;100.00
63715;BME280;49858;48.956;9.076;2023-10-19T02:43:05;96980.69;;;14.51;100.00
63715;BME280;49858;48.956;9.076;2023-10-19T02:45:34;96983.69;;;14.37;100.00
63715;BME280;49858;48.956;9.076;2023-10-19T02:48:01;96983.25;;;14.62;100.00
63715;BME280;49858;48.956;9.076;2023-10-19T02:50:30;96978.63;;;14.55;100.00
63715;BME280;49858;48.956;9.076;2023-10-19T02:53:00;96976.16;;;14.81;100.00
63715;BME280;49858;48.956;9.076;2023-10-19T02:55:28;96974.03;;;14.69;100.00
63715;BME280;49858;48.956;9.076;2023-10-19T02:57:56;96952.03;;;14.62;100.00
63715;BME280;49858;48.956;9.076;2023-10-19T03:00:26;96946.56;;;14.78;100.00
63715;BME280;49858;48.956;9.076;2023-10-19T03:03:00;96943.94;;;14.71;100.00
63715;BME280;49858;48.956;9.076;2023-10-19T03:05:27;96952.31;;;14.24;100.00
63715;BME280;49858;48.956;9.076;2023-10-19T03:07:57;96950.50;;;13.94;100.00
63715;BME280;49858;48.956;9.076;2023-10-19T03:10:24;96951.34;;;13.64;100.00
63715;BME280;49858;48.956;9.076;2023-10-19T03:13:00;96955.28;;;13.90;100.00
63715;BME280;49858;48.956;9.076;2023-10-19T03:15:29;96948.78;;;14.00;100.00
63715;BME280;49858;48.956;9.076;2023-10-19T03:18:00;96940.78;;;13.59;100.00
63715;BME280;49858;48.956;9.076;2023-10-19T03:20:27;96943.94;;;13.84;100.00
63715;BME280;49858;48.956;9.076;2023-10-19T03:22:55;96936.28;;;13.92;100.00
63715;BME280;49858;48.956;9.076;2023-10-19T03:25:27;96944.59;;;13.92;100.00
63715;BME280;49858;48.956;9.076;2023-10-19T03:28:12;96943.25;;;13.76;100.00
63715;BME280;49858;48.956;9.076;2023-10-19T03:30:44;96940.97;;;13.95;100.00
63715;BME280;49858;48.956;9.076;2023-10-19T03:33:13;96938.91;;;13.79;100.00
63715;BME280;49858;48.956;9.076;2023-10-19T03:35:44;96940.56;;;13.73;100.00
63715;BME280;49858;48.956;9.076;2023-10-19T03:38:12;96937.13;;;14.12;100.00
63715;BME280;49858;48.956;9.076;2023-10-19T03:40:46;96926.91;;;14.52;100.00
63715;BME280;49858;48.956;9.076;2023-10-19T03:43:18;96918.13;;;14.77;100.00
63715;BME280;49858;48.956;9.076;2023-10-19T03:45:49;96914.53;;;14.97;100.00
63715;BME280;49858;48.956;9.076;2023-10-19T03:48:20;96905.75;;;14.82;100.00
63715;BME280;49858;48.956;9.076;2023-10-19T03:50:53;96911.03;;;14.56;100.00
63715;BME280;49858;48.956;9.076;2023-10-19T03:53:22;96916.41;;;14.64;100.00
63715;BME280;49858;48.956;9.076;2023-10-19T03:55:50;96916.47;;;14.80;100.00
63715;BME280;49858;48.956;9.076;2023-10-19T03:58:21;96909.09;;;14.53;100.00
63715;BME280;49858;48.956;9.076;2023-10-19T04:00:51;96907.97;;;14.71;100.00
63715;BME280;49858;48.956;9.076;2023-10-19T04:03:19;96907.91;;;14.54;100.00
63715;BME280;49858;48.956;9.076;2023-10-19T04:05:51;96903.00;;;14.82;100.00
63715;BME280;49858;48.956;9.076;2023-10-19T04:08:20;96907.31;;;14.83;100.00
63715;BME280;49858;48.956;9.076;2023-10-19T04:10:52;96899.59;;;14.54;100.00
63715;BME280;49858;48.956;9.076;2023-10-19T04:13:46;96901.75;;;14.43;100.00
63715;BME280;49858;48.956;9.076;2023-10-19T04:16:14;96893.19;;;14.57;100.00
63715;BME280;49858;48.956;9.076;2023-10-19T04:18:41;96882.78;;;14.65;100.00
63715;BME280;49858;48.956;9.076;2023-10-19T04:21:10;96883.84;;;15.07;100.00
63715;BME280;49858;48.956;9.076;2023-10-19T04:23:38;96879.13;;;14.88;100.00
63715;BME280;49858;48.956;9.076;2023-10-19T04:26:07;96880.81;;;15.18;100.00
63715;BME280;49858;48.956;9.076;2023-10-19T04:28:39;96875.44;;;15.11;100.00
63715;BME280;49858;48.956;9.076;2023-10-19T04:31:13;96870.34;;;15.26;100.00
63715;BME280;49858;48.956;9.076;2023-10-19T04:33:45;96869.41;;;15.49;100.00
63715;BME280;49858;48.956;9.076;2023-10-19T04:36:14;96870.19;;;15.49;100.00
63715;BME280;49858;48.956;9.076;2023-10-19T04:38:42;96877.53;;;15.23;100.00
63715;BME280;49858;48.956;9.076;2023-10-19T04:41:11;96878.84;;;15.35;100.00
63715;BME280;49858;48.956;9.076;2023-10-19T04:43:39;96867.22;;;15.24;100.00
63715;BME280;49858;48.956;9.076;2023-10-19T04:46:14;96870.16;;;15.33;100.00
63715;BME280;49858;48.956;9.076;2023-10-19T04:48:45;96856.75;;;15.31;100.00
63715;BME280;49858;48.956;9.076;2023-10-19T04:51:13;96863.16;;;15.28;100.00
63715;BME280;49858;48.956;9.076;2023-10-19T04:53:41;96866.38;;;15.43;100.00
63715;BME280;49858;48.956;9.076;2023-10-19T04:56:09;96868.97;;;15.50;100.00
63715;BME280;49858;48.956;9.076;2023-10-19T04:58:39;96871.41;;;15.48;100.00
63715;BME280;49858;48.956;9.076;2023-10-19T05:01:07;96869.09;;;14.94;100.00
63715;BME280;49858;48.956;9.076;2023-10-19T05:03:41;96866.88;;;14.69;100.00
63715;BME280;49858;48.956;9.076;2023-10-19T05:06:09;96856.97;;;14.88;100.00
63715;BME280;49858;48.956;9.076;2023-10-19T05:08:37;96858.22;;;15.03;100.00
63715;BME280;49858;48.956;9.076;2023-10-19T05:11:07;96851.28;;;14.95;100.00
63715;BME280;49858;48.956;9.076;2023-10-19T05:13:35;96854.75;;;14.99;100.00
63715;BME280;49858;48.956;9.076;2023-10-19T05:16:04;96857.94;;;15.14;100.00
63715;BME280;49858;48.956;9.076;2023-10-19T05:18:43;96867.69;;;15.39;100.00
63715;BME280;49858;48.956;9.076;2023-10-19T05:21:11;96864.09;;;15.38;100.00
63715;BME280;49858;48.956;9.076;2023-10-19T05:23:40;96863.34;;;15.70;100.00
63715;BME280;49858;48.956;9.076;2023-10-19T05:26:08;96867.06;;;15.80;100.00
63715;BME280;49858;48.956;9.076;2023-10-19T05:28:36;96860.44;;;15.90;100.00
63715;BME280;49858;48.956;9.076;2023-10-19T05:31:03;96869.28;;;16.01;100.00
63715;BME280;49858;48.956;9.076;2023-10-19T05:33:31;96865.19;;;15.77;100.00
63715;BME280;49858;48.956;9.076;2023-10-19T05:36:01;96861.63;;;15.76;100.00
63715;BME280;49858;48.956;9.076;2023-10-19T05:38:29;96860.75;;;15.63;100.00
63715;BME280;49858;48.956;9.076;2023-10-19T05:40:58;96866.34;;;15.92;100.00
63715;BME280;49858;48.956;9.076;2023-10-19T05:43:26;96867.59;;;15.75;100.00
63715;BME280;49858;48.956;9.076;2023-10-19T05:45:55;96867.66;;;15.88;100.00
63715;BME280;49858;48.956;9.076;2023-10-19T05:48:23;96875.50;;;15.76;100.00
63715;BME280;49858;48.956;9.076;2023-10-19T05:50:51;96871.78;;;15.67;100.00
63715;BME280;49858;48.956;9.076;2023-10-19T05:53:21;96867.41;;;15.66;100.00
63715;BME280;49858;48.956;9.076;2023-10-19T05:55:49;96864.13;;;15.71;100.00
63715;BME280;49858;48.956;9.076;2023-10-19T05:58:17;96871.84;;;15.63;100.00
63715;BME280;49858;48.956;9.076;2023-10-19T06:00:47;96865.88;;;15.65;100.00
63715;BME280;49858;48.956;9.076;2023-10-19T06:03:16;96868.56;;;14.83;100.00
63715;BME280;49858;48.956;9.076;2023-10-19T06:05:44;96870.63;;;14.79;100.00
63715;BME280;49858;48.956;9.076;2023-10-19T06:08:12;96883.47;;;15.05;100.00
63715;BME280;49858;48.956;9.076;2023-10-19T06:10:42;96888.25;;;15.21;100.00
63715;BME280;49858;48.956;9.076;2023-10-19T06:13:10;96887.81;;;15.23;100.00
63715;BME280;49858;48.956;9.076;2023-10-19T06:15:38;96883.94;;;15.20;100.00
63715;BME280;49858;48.956;9.076;2023-10-19T06:18:06;96892.00;;;15.31;100.00
63715;BME280;49858;48.956;9.076;2023-10-19T06:20:34;96883.69;;;15.31;100.00
63715;BME280;49858;48.956;9.076;2023-10-19T06:23:03;96879.66;;;14.99;100.00
63715;BME280;49858;48.956;9.076;2023-10-19T06:25:33;96880.22;;;15.11;100.00
63715;BME280;49858;48.956;9.076;2023-10-19T06:28:04;96884.56;;;15.44;100.00
63715;BME280;49858;48.956;9.076;2023-10-19T06:30:32;96881.09;;;15.56;100.00
63715;BME280;49858;48.956;9.076;2023-10-19T06:33:00;96879.72;;;15.65;100.00
63715;BME280;49858;48.956;9.076;2023-10-19T06:35:30;96881.25;;;15.98;100.00
63715;BME280;49858;48.956;9.076;2023-10-19T06:37:59;96875.69;;;15.98;100.00
63715;BME280;49858;48.956;9.076;2023-10-19T06:40:28;96866.81;;;15.91;100.00
63715;BME280;49858;48.956;9.076;2023-10-19T06:42:56;96872.34;;;15.42;100.00
63715;BME280;49858;48.956;9.076;2023-10-19T06:45:26;96883.44;;;15.74;100.00
63715;BME280;49858;48.956;9.076;2023-10-19T06:47:56;96872.34;;;15.58;100.00
63715;BME280;49858;48.956;9.076;2023-10-19T06:50:24;96872.97;;;15.49;100.00
63715;BME280;49858;48.956;9.076;2023-10-19T06:52:53;96863.56;;;14.94;100.00
63715;BME280;49858;48.956;9.076;2023-10-19T06:55:21;96872.25;;;15.13;100.00
63715;BME280;49858;48.956;9.076;2023-10-19T06:57:51;96867.06;;;15.31;100.00
63715;BME280;49858;48.956;9.076;2023-10-19T07:00:21;96875.13;;;15.25;100.00
63715;BME280;49858;48.956;9.076;2023-10-19T07:02:51;96863.63;;;15.43;100.00
63715;BME280;49858;48.956;9.076;2023-10-19T07:05:20;96863.69;;;15.40;100.00
63715;BME280;49858;48.956;9.076;2023-10-19T07:07:50;96867.56;;;15.42;100.00
63715;BME280;49858;48.956;9.076;2023-10-19T07:10:19;96866.72;;;15.45;100.00
63715;BME280;49858;48.956;9.076;2023-10-19T07:12:48;96868.13;;;15.70;100.00
63715;BME280;49858;48.956;9.076;2023-10-19T07:15:16;96860.81;;;15.92;100.00
63715;BME280;49858;48.956;9.076;2023-10-19T07:17:46;96862.28;;;15.97;100.00
63715;BME280;49858;48.956;9.076;2023-10-19T07:20:16;96865.66;;;16.04;100.00
63715;BME280;49858;48.956;9.076;2023-10-19T07:22:52;96856.50;;;16.20;100.00
63715;BME280;49858;48.956;9.076;2023-10-19T07:25:21;96863.97;;;16.07;100.00
63715;BME280;49858;48.956;9.076;2023-10-19T07:27:49;96865.00;;;16.13;100.00
63715;BME280;49858;48.956;9.076;2023-10-19T07:30:20;96863.34;;;16.16;100.00
63715;BME280;49858;48.956;9.076;2023-10-19T07:32:48;96866.91;;;16.16;100.00
63715;BME280;49858;48.956;9.076;2023-10-19T07:35:22;96867.88;;;16.93;100.00
63715;BME280;49858;48.956;9.076;2023-10-19T07:37:52;96852.47;;;17.05;100.00
63715;BME280;49858;48.956;9.076;2023-10-19T07:40:20;96860.66;;;17.21;100.00
63715;BME280;49858;48.956;9.076;2023-10-19T07:42:49;96856.47;;;16.49;100.00
63715;BME280;49858;48.956;9.076;2023-10-19T07:45:19;96858.00;;;16.92;100.00
63715;BME280;49858;48.956;9.076;2023-10-19T07:47:48;96862.88;;;16.88;100.00
63715;BME280;49858;48.956;9.076;2023-10-19T07:50:16;96866.97;;;16.71;100.00
63715;BME280;49858;48.956;9.076;2023-10-19T07:52:46;96864.81;;;17.04;100.00
63715;BME280;49858;48.956;9.076;2023-10-19T07:55:16;96847.63;;;17.56;100.00
63715;BME280;49858;48.956;9.076;2023-10-19T07:57:44;96848.38;;;17.70;100.00
63715;BME280;49858;48.956;9.076;2023-10-19T08:00:13;96850.22;;;17.51;100.00
63715;BME280;49858;48.956;9.076;2023-10-19T08:02:41;96850.66;;;17.97;100.00
63715;BME280;49858;48.956;9.076;2023-10-19T08:05:12;96848.03;;;18.15;100.00
63715;BME280;49858;48.956;9.076;2023-10-19T08:07:40;96840.13;;;18.13;100.00
63715;BME280;49858;48.956;9.076;2023-10-19T08:10:11;96834.25;;;18.11;100.00
63715;BME280;49858;48.956;9.076;2023-10-19T08:12:41;96827.91;;;18.11;100.00
63715;BME280;49858;48.956;9.076;2023-10-19T08:15:09;96829.97;;;18.20;100.00
63715;BME280;49858;48.956;9.076;2023-10-19T08:17:38;96830.38;;;18.31;100.00
63715;BME280;49858;48.956;9.076;2023-10-19T08:20:07;96830.09;;;18.38;100.00
63715;BME280;49858;48.956;9.076;2023-10-19T08:22:40;96836.16;;;18.68;100.00
63715;BME280;49858;48.956;9.076;2023-10-19T08:29:24;96835.72;;;19.40;100.00
63715;BME280;49858;48.956;9.076;2023-10-19T08:31:52;96841.94;;;19.45;100.00
63715;BME280;49858;48.956;9.076;2023-10-19T08:34:20;96844.19;;;19.68;100.00
63715;BME280;49858;48.956;9.076;2023-10-19T08:36:51;96836.00;;;20.10;100.00
63715;BME280;49858;48.956;9.076;2023-10-19T08:39:25;96840.66;;;20.32;100.00
63715;BME280;49858;48.956;9.076;2023-10-19T08:42:02;96837.53;;;20.66;100.00
63715;BME280;49858;48.956;9.076;2023-10-19T08:44:32;96828.69;;;20.68;100.00
63715;BME280;49858;48.956;9.076;2023-10-19T08:47:01;96824.34;;;21.09;100.00
63715;BME280;49858;48.956;9.076;2023-10-19T08:49:33;96818.31;;;21.02;100.00
63715;BME280;49858;48.956;9.076;2023-10-19T08:52:05;96821.69;;;21.15;100.00
63715;BME280;49858;48.956;9.076;2023-10-19T08:54:34;96821.38;;;21.22;100.00
63715;BME280;49858;48.956;9.076;2023-10-19T08:57:03;96822.69;;;21.36;100.00
63715;BME280;49858;48.956;9.076;2023-10-19T08:59:32;96819.94;;;21.84;100.00
63715;BME280;49858;48.956;9.076;2023-10-19T09:02:01;96808.75;;;22.23;100.00
63715;BME280;49858;48.956;9.076;2023-10-19T09:04:29;96811.41;;;22.70;100.00
63715;BME280;49858;48.956;9.076;2023-10-19T09:07:00;96799.88;;;23.13;100.00
63715;BME280;49858;48.956;9.076;2023-10-19T09:09:34;96798.91;;;23.16;100.00
63715;BME280;49858;48.956;9.076;2023-10-19T09:12:07;96802.13;;;22.94;100.00
63715;BME280;49858;48.956;9.076;2023-10-19T09:14:37;96796.50;;;23.09;100.00
63715;BME280;49858;48.956;9.076;2023-10-19T09:17:08;96790.03;;;23.38;100.00
63715;BME280;49858;48.956;9.076;2023-10-19T09:19:38;96802.16;;;23.29;100.00
63715;BME280;49858;48.956;9.076;2023-10-19T09:22:06;96792.97;;;23.29;100.00
63715;BME280;49858;48.956;9.076;2023-10-19T09:24:45;96796.03;;;22.95;100.00
63715;BME280;49858;48.956;9.076;2023-10-19T09:27:13;96790.91;;;22.94;100.00
63715;BME280;49858;48.956;9.076;2023-10-19T09:29:49;96783.75;;;22.93;100.00
63715;BME280;49858;48.956;9.076;2023-10-19T09:32:18;96794.56;;;22.70;100.00
63715;BME280;49858;48.956;9.076;2023-10-19T09:34:47;96785.28;;;23.09;100.00
63715;BME280;49858;48.956;9.076;2023-10-19T09:37:16;96782.41;;;22.44;100.00
63715;BME280;49858;48.956;9.076;2023-10-19T09:39:45;96778.53;;;22.56;100.00
63715;BME280;49858;48.956;9.076;2023-10-19T09:42:14;96769.84;;;22.69;100.00
63715;BME280;49858;48.956;9.076;2023-10-19T09:44:45;96775.81;;;22.17;100.00
63715;BME280;49858;48.956;9.076;2023-10-19T09:47:22;96769.66;;;22.28;100.00
63715;BME280;49858;48.956;9.076;2023-10-19T09:49:55;96768.59;;;22.70;100.00
63715;BME280;49858;48.956;9.076;2023-10-19T09:52:23;96760.75;;;23.24;100.00
63715;BME280;49858;48.956;9.076;2023-10-19T09:54:59;96759.59;;;23.51;100.00
63715;BME280;49858;48.956;9.076;2023-10-19T09:57:33;96766.66;;;23.82;100.00
63715;BME280;49858;48.956;9.076;2023-10-19T10:00:05;96756.28;;;23.67;100.00
63715;BME280;49858;48.956;9.076;2023-10-19T10:02:42;96769.47;;;22.32;100.00
63715;BME280;49858;48.956;9.076;2023-10-19T10:05:44;96774.38;;;22.52;100.00
63715;BME280;49858;48.956;9.076;2023-10-19T10:08:32;96763.25;;;22.72;100.00
63715;BME280;49858;48.956;9.076;2023-10-19T10:11:15;96773.88;;;22.24;100.00
63715;BME280;49858;48.956;9.076;2023-10-19T10:13:44;96763.09;;;21.21;100.00
63715;BME280;49858;48.956;9.076;2023-10-19T10:16:13;96764.53;;;20.83;100.00
63715;BME280;49858;48.956;9.076;2023-10-19T10:18:46;96759.47;;;21.77;100.00
63715;BME280;49858;48.956;9.076;2023-10-19T10:21:16;96752.78;;;21.36;100.00
63715;BME280;49858;48.956;9.076;2023-10-19T10:23:50;96755.09;;;22.00;100.00
63715;BME280;49858;48.956;9.076;2023-10-19T10:26:20;96756.22;;;21.31;100.00
63715;BME280;49858;48.956;9.076;2023-10-19T10:29:12;96750.50;;;21.49;100.00
63715;BME280;49858;48.956;9.076;2023-10-19T10:31:42;96756.09;;;20.92;100.00
63715;BME280;49858;48.956;9.076;2023-10-19T10:34:12;96749.16;;;21.44;100.00
63715;BME280;49858;48.956;9.076;2023-10-19T10:37:08;96747.28;;;21.17;100.00
63715;BME280;49858;48.956;9.076;2023-10-19T10:39:37;96754.66;;;20.63;100.00
63715;BME280;49858;48.956;9.076;2023-10-19T10:42:08;96754.84;;;20.51;100.00
63715;BME280;49858;48.956;9.076;2023-10-19T10:44:42;96755.66;;;20.33;100.00
63715;BME280;49858;48.956;9.076;2023-10-19T10:47:11;96764.09;;;19.96;100.00
63715;BME280;49858;48.956;9.076;2023-10-19T10:49:52;96757.63;;;20.51;100.00
63715;BME280;49858;48.956;9.076;2023-10-19T10:52:28;96756.84;;;20.59;100.00
63715;BME280;49858;48.956;9.076;2023-10-19T10:54:57;96751.66;;;21.09;100.00
63715;BME280;49858;48.956;9.076;2023-10-19T10:57:31;96760.88;;;21.58;100.00
63715;BME280;49858;48.956;9.076;2023-10-19T11:00:04;96754.28;;;21.46;100.00
63715;BME280;49858;48.956;9.076;2023-10-19T11:02:35;96757.25;;;21.66;100.00
63715;BME280;49858;48.956;9.076;2023-10-19T11:05:11;96757.50;;;20.87;100.00
63715;BME280;49858;48.956;9.076;2023-10-19T11:07:40;96760.25;;;21.30;100.00
63715;BME280;49858;48.956;9.076;2023-10-19T11:10:08;96765.94;;;21.11;100.00
63715;BME280;49858;48.956;9.076;2023-10-19T11:12:37;96769.13;;;21.28;100.00
63715;BME280;49858;48.956;9.076;2023-10-19T11:15:05;96762.56;;;21.64;100.00
63715;BME280;49858;48.956;9.076;2023-10-19T11:17:42;96758.50;;;21.08;100.00
63715;BME280;49858;48.956;9.076;2023-10-19T11:20:21;96765.31;;;20.04;100.00
63715;BME280;49858;48.956;9.076;2023-10-19T11:22:49;96764.53;;;19.85;100.00
63715;BME280;49858;48.956;9.076;2023-10-19T11:25:21;96769.66;;;19.96;100.00
63715;BME280;49858;48.956;9.076;2023-10-19T11:27:55;96774.00;;;19.88;100.00
63715;BME280;49858;48.956;9.076;2023-10-19T11:30:31;96770.59;;;19.84;100.00
63715;BME280;49858;48.956;9.076;2023-10-19T11:33:13;96774.56;;;19.55;100.00
63715;BME280;49858;48.956;9.076;2023-10-19T11:35:50;96778.06;;;19.19;100.00
63715;BME280;49858;48.956;9.076;2023-10-19T11:38:18;96765.63;;;19.02;100.00
63715;BME280;49858;48.956;9.076;2023-10-19T11:40:45;96758.94;;;19.58;100.00
63715;BME280;49858;48.956;9.076;2023-10-19T11:43:17;96753.22;;;19.71;100.00
63715;BME280;49858;48.956;9.076;2023-10-19T11:45:46;96742.38;;;19.82;100.00
63715;BME280;49858;48.956;9.076;2023-10-19T11:48:35;96737.06;;;20.11;100.00
63715;BME280;49858;48.956;9.076;2023-10-19T11:51:06;96741.63;;;19.81;100.00
63715;BME280;49858;48.956;9.076;2023-10-19T11:53:41;96745.41;;;19.47;100.00
63715;BME280;49858;48.956;9.076;2023-10-19T11:56:24;96735.47;;;19.19;100.00
63715;BME280;49858;48.956;9.076;2023-10-19T11:59:04;96726.72;;;18.58;100.00
63715;BME280;49858;48.956;9.076;2023-10-19T12:02:04;96734.97;;;18.93;100.00
63715;BME280;49858;48.956;9.076;2023-10-19T12:04:42;96709.06;;;18.74;100.00
63715;BME280;49858;48.956;9.076;2023-10-19T12:07:11;96698.06;;;18.48;100.00
63715;BME280;49858;48.956;9.076;2023-10-19T12:09:39;96701.06;;;18.54;100.00
63715;BME280;49858;48.956;9.076;2023-10-19T12:12:14;96693.25;;;18.71;100.00
63715;BME280;49858;48.956;9.076;2023-10-19T12:14:45;96701.34;;;18.78;100.00
63715;BME280;49858;48.956;9.076;2023-10-19T12:17:13;96676.28;;;18.87;100.00
63715;BME280;49858;48.956;9.076;2023-10-19T12:20:04;96684.78;;;18.83;100.00
63715;BME280;49858;48.956;9.076;2023-10-19T12:22:34;96693.88;;;18.75;100.00
63715;BME280;49858;48.956;9.076;2023-10-19T12:25:09;96691.69;;;18.70;100.00
63715;BME280;49858;48.956;9.076;2023-10-19T12:27:37;96683.69;;;18.81;100.00
63715;BME280;49858;48.956;9.076;2023-10-19T12:30:31;96681.88;;;19.14;100.00
63715;BME280;49858;48.956;9.076;2023-10-19T12:33:04;96672.75;;;19.23;100.00
63715;BME280;49858;48.956;9.076;2023-10-19T12:35:56;96669.06;;;19.17;100.00
63715;BME280;49858;48.956;9.076;2023-10-19T12:38:38;96666.56;;;19.28;100.00
63715;BME280;49858;48.956;9.076;2023-10-19T12:41:07;96678.66;;;19.71;100.00
63715;BME280;49858;48.956;9.076;2023-10-19T12:43:36;96681.31;;;19.75;100.00
63715;BME280;49858;48.956;9.076;2023-10-19T12:46:09;96688.78;;;20.38;100.00
63715;BME280;49858;48.956;9.076;2023-10-19T12:48:39;96680.69;;;20.83;100.00
63715;BME280;49858;48.956;9.076;2023-10-19T12:51:14;96689.69;;;20.45;100.00
63715;BME280;49858;48.956;9.076;2023-10-19T12:53:53;96688.38;;;20.12;100.00
63715;BME280;49858;48.956;9.076;2023-10-19T12:56:36;96682.00;;;20.97;100.00
63715;BME280;49858;48.956;9.076;2023-10-19T12:59:07;96677.56;;;21.38;100.00
63715;BME280;49858;48.956;9.076;2023-10-19T13:01:36;96676.97;;;21.10;100.00
63715;BME280;49858;48.956;9.076;2023-10-19T13:04:15;96673.44;;;20.76;100.00
63715;BME280;49858;48.956;9.076;2023-10-19T13:06:51;96694.31;;;20.90;100.00
63715;BME280;49858;48.956;9.076;2023-10-19T13:09:26;96693.06;;;20.06;100.00
63715;BME280;49858;48.956;9.076;2023-10-19T13:11:59;96698.66;;;19.97;100.00
63715;BME280;49858;48.956;9.076;2023-10-19T13:14:31;96701.94;;;19.68;100.00
63715;BME280;49858;48.956;9.076;2023-10-19T13:17:03;96692.91;;;19.27;100.00